Time;durP1;ratioP1;P1;durP2;ratioP2;P2;SDS_P1;SDS_P2;PMS_P1;PMS_P2;Temp;Humidity;BMP_temperature;BMP_pressure;BME280_temperature;BME280_humidity;BME280_pressure;Samples;Min_cycle;Max_cycle;Signal;HPM_P1;HPM_P2
2021/01/22 00:01:47;;;;;;;3.25;1.00;;;;;;;;;;5077297;28;20030;-88
2021/01/22 00:04:13;;;;;;;1.55;0.80;;;;;;;;;;5064142;28;20030;-87
2021/01/22 00:06:39;;;;;;;2.58;0.85;;;;;;;;;;5039480;28;20034;-86
2021/01/22 00:09:05;;;;;;;2.63;0.95;;;;;;;;;;5097607;28;20036;-87
2021/01/22 00:11:32;;;;;;;2.80;1.02;;;;;;;;;;5079797;28;20024;-86
2021/01/22 00:13:58;;;;;;;3.53;1.42;;;;;;;;;;5080039;28;20035;-86
2021/01/22 00:16:24;;;;;;;2.97;0.95;;;;;;;;;;5098441;28;20032;-86
2021/01/22 00:18:50;;;;;;;2.58;0.93;;;;;;;;;;5090949;28;20031;-87
2021/01/22 00:21:16;;;;;;;1.58;0.60;;;;;;;;;;5098161;28;20032;-86
2021/01/22 00:23:42;;;;;;;1.13;0.93;;;;;;;;;;5082805;28;20062;-86
2021/01/22 00:26:09;;;;;;;3.85;1.20;;;;;;;;;;5100846;28;20028;-87
2021/01/22 00:28:35;;;;;;;2.80;1.05;;;;;;;;;;5120354;28;20027;-88
2021/01/22 00:31:01;;;;;;;2.58;1.00;;;;;;;;;;5104424;28;20024;-87
2021/01/22 00:33:27;;;;;;;1.50;0.80;;;;;;;;;;5113730;28;20039;-87
2021/01/22 00:35:54;;;;;;;3.95;0.98;;;;;;;;;;5100639;28;20028;-87
2021/01/22 00:38:20;;;;;;;1.42;0.80;;;;;;;;;;5088592;28;20605;-85
2021/01/22 00:40:46;;;;;;;4.13;1.10;;;;;;;;;;5082935;28;20055;-86
2021/01/22 00:43:12;;;;;;;2.92;1.00;;;;;;;;;;5083165;28;20038;-86
2021/01/22 00:45:38;;;;;;;1.90;0.90;;;;;;;;;;5100607;28;20028;-86
2021/01/22 00:48:06;;;;;;;4.32;1.10;;;;;;;;;;5082576;28;20024;-84
2021/01/22 00:50:32;;;;;;;2.67;0.77;;;;;;;;;;5100468;28;20050;-84
2021/01/22 00:52:58;;;;;;;1.48;0.60;;;;;;;;;;5082143;28;20424;-84
2021/01/22 00:55:24;;;;;;;4.10;1.35;;;;;;;;;;5082424;28;20032;-85
2021/01/22 00:57:50;;;;;;;2.75;0.77;;;;;;;;;;5081840;28;20020;-87
2021/01/22 01:00:17;;;;;;;3.80;0.90;;;;;;;;;;5083041;28;20035;-87
2021/01/22 01:02:43;;;;;;;5.63;0.90;;;;;;;;;;5082977;28;20070;-85
2021/01/22 01:05:09;;;;;;;2.05;0.75;;;;;;;;;;5082230;28;20032;-87
2021/01/22 01:07:36;;;;;;;3.55;0.88;;;;;;;;;;5100421;28;20058;-88
2021/01/22 01:10:02;;;;;;;2.25;0.80;;;;;;;;;;5081757;28;20351;-87
2021/01/22 01:12:28;;;;;;;2.25;0.93;;;;;;;;;;5081832;28;20077;-88
2021/01/22 01:14:54;;;;;;;2.35;0.65;;;;;;;;;;5099765;28;20024;-85
2021/01/22 01:17:20;;;;;;;1.48;0.80;;;;;;;;;;5081489;28;20480;-86
2021/01/22 01:19:46;;;;;;;1.92;0.88;;;;;;;;;;5100209;28;20039;-86
2021/01/22 01:22:12;;;;;;;2.50;1.10;;;;;;;;;;5100156;28;20024;-88
2021/01/22 01:24:38;;;;;;;3.60;0.90;;;;;;;;;;5082557;28;20351;-87
2021/01/22 01:27:04;;;;;;;1.70;0.77;;;;;;;;;;5082151;28;20024;-87
2021/01/22 01:29:30;;;;;;;1.83;0.90;;;;;;;;;;5081350;28;20089;-86
2021/01/22 01:31:56;;;;;;;2.15;0.63;;;;;;;;;;5082416;28;20058;-86
2021/01/22 01:34:22;;;;;;;2.35;0.88;;;;;;;;;;5081993;28;20529;-87
2021/01/22 01:36:49;;;;;;;2.10;0.60;;;;;;;;;;5100033;28;20034;-88
2021/01/22 01:39:15;;;;;;;2.45;0.85;;;;;;;;;;5081840;28;20055;-86
2021/01/22 01:41:41;;;;;;;2.83;0.70;;;;;;;;;;5082891;28;20032;-87
2021/01/22 01:44:07;;;;;;;2.20;0.85;;;;;;;;;;5101080;28;20027;-86
2021/01/22 01:46:34;;;;;;;2.35;0.80;;;;;;;;;;5100865;28;20364;-87
2021/01/22 01:49:01;;;;;;;5.38;1.10;;;;;;;;;;5081981;28;20067;-86
2021/01/22 01:51:27;;;;;;;2.75;1.13;;;;;;;;;;5099812;28;20040;-86
2021/01/22 01:53:53;;;;;;;4.95;1.02;;;;;;;;;;5102547;28;20039;-88
2021/01/22 01:56:20;;;;;;;2.65;1.02;;;;;;;;;;5102790;28;20027;-86
2021/01/22 01:58:46;;;;;;;2.40;1.00;;;;;;;;;;5101479;28;20027;-86
2021/01/22 02:01:13;;;;;;;2.65;1.10;;;;;;;;;;5101714;28;20097;-88
2021/01/22 02:03:39;;;;;;;6.78;1.20;;;;;;;;;;5101536;28;20023;-86
2021/01/22 02:06:05;;;;;;;2.33;0.95;;;;;;;;;;5102731;28;20035;-88
2021/01/22 02:08:32;;;;;;;3.00;0.80;;;;;;;;;;5102502;28;20031;-89
2021/01/22 02:11:00;;;;;;;2.20;0.60;;;;;;;;;;5121185;28;20028;-89
2021/01/22 02:13:27;;;;;;;2.70;0.50;;;;;;;;;;5102653;28;20027;-87
2021/01/22 02:15:55;;;;;;;2.83;0.50;;;;;;;;;;5101096;28;20028;-87
2021/01/22 02:18:21;;;;;;;1.40;0.47;;;;;;;;;;5081321;28;20036;-86
2021/01/22 02:20:52;;;;;;;1.77;0.55;;;;;;;;;;5099594;28;20145;-86
2021/01/22 02:23:20;;;;;;;0.90;0.30;;;;;;;;;;5099762;28;20036;-86
2021/01/22 02:25:48;;;;;;;4.93;1.13;;;;;;;;;;5081070;28;20028;-87
2021/01/22 02:28:15;;;;;;;1.02;0.50;;;;;;;;;;5080772;28;20040;-86
2021/01/22 02:30:43;;;;;;;0.43;0.40;;;;;;;;;;5098568;28;20031;-85
2021/01/22 02:33:09;;;;;;;0.77;0.45;;;;;;;;;;5081090;28;20028;-86
2021/01/22 02:35:36;;;;;;;1.33;0.40;;;;;;;;;;5099201;28;20024;-85
2021/01/22 02:38:03;;;;;;;0.32;0.32;;;;;;;;;;5081022;28;20451;-87
2021/01/22 02:40:31;;;;;;;0.30;0.30;;;;;;;;;;5080864;28;20047;-87
2021/01/22 02:42:57;;;;;;;0.70;0.30;;;;;;;;;;5081367;28;20032;-87
2021/01/22 02:45:24;;;;;;;0.50;0.40;;;;;;;;;;5098362;28;20038;-88
2021/01/22 02:47:51;;;;;;;0.40;0.32;;;;;;;;;;5080519;28;20427;-87
2021/01/22 02:50:18;;;;;;;0.40;0.40;;;;;;;;;;5080289;28;20036;-87
2021/01/22 02:52:44;;;;;;;0.45;0.40;;;;;;;;;;5080975;28;20024;-89
2021/01/22 02:55:12;;;;;;;0.80;0.60;;;;;;;;;;5080876;28;20036;-88
2021/01/22 02:57:50;;;;;;;0.55;0.55;;;;;;;;;;5098089;28;20358;-88
2021/01/22 03:03:25;;;;;;;1.52;0.98;;;;;;;;;;5026168;28;20060;-89
2021/01/22 03:05:56;;;;;;;0.70;0.70;;;;;;;;;;5017073;28;20129;-87
2021/01/22 03:08:23;;;;;;;0.90;0.90;;;;;;;;;;5085536;28;20356;-90
2021/01/22 03:10:51;;;;;;;0.80;0.80;;;;;;;;;;5087059;28;20025;-87
2021/01/22 03:13:17;;;;;;;0.90;0.80;;;;;;;;;;5070681;28;20042;-88
2021/01/22 03:15:44;;;;;;;1.00;0.90;;;;;;;;;;5008037;28;20025;-88
2021/01/22 03:18:11;;;;;;;2.25;0.90;;;;;;;;;;5085187;28;20042;-86
2021/01/22 03:20:37;;;;;;;0.75;0.75;;;;;;;;;;5085929;28;20345;-88
2021/01/22 03:23:04;;;;;;;1.77;0.95;;;;;;;;;;5086133;28;20124;-86
2021/01/22 03:25:30;;;;;;;2.67;0.63;;;;;;;;;;5019364;28;20096;-87
2021/01/22 03:27:56;;;;;;;1.13;0.93;;;;;;;;;;5085975;28;20033;-87
2021/01/22 03:30:23;;;;;;;0.80;0.80;;;;;;;;;;5087941;28;20033;-87
2021/01/22 03:32:49;;;;;;;2.45;0.63;;;;;;;;;;5087118;28;20105;-87
2021/01/22 03:35:15;;;;;;;0.63;0.63;;;;;;;;;;5097151;28;20347;-88
2021/01/22 03:37:41;;;;;;;0.82;0.70;;;;;;;;;;5101571;28;20059;-87
2021/01/22 03:40:08;;;;;;;1.23;0.80;;;;;;;;;;5082316;28;20024;-85
2021/01/22 03:42:34;;;;;;;1.50;1.40;;;;;;;;;;5084096;28;20020;-89
2021/01/22 03:45:00;;;;;;;1.05;1.00;;;;;;;;;;5082443;28;20494;-87
2021/01/22 03:47:26;;;;;;;2.40;1.20;;;;;;;;;;5056689;28;20026;-88
2021/01/22 03:49:52;;;;;;;1.35;0.98;;;;;;;;;;5084076;28;20372;-87
2021/01/22 03:52:18;;;;;;;1.40;1.30;;;;;;;;;;5084125;28;20025;-89
2021/01/22 03:54:44;;;;;;;2.65;1.10;;;;;;;;;;5016187;28;20045;-87
2021/01/22 03:57:10;;;;;;;1.50;1.40;;;;;;;;;;5067365;28;20026;-88
2021/01/22 03:59:37;;;;;;;1.70;1.40;;;;;;;;;;5067568;28;20425;-87
2021/01/22 04:02:03;;;;;;;2.72;2.05;;;;;;;;;;5070375;28;20034;-86
2021/01/22 04:04:32;;;;;;;2.65;2.45;;;;;;;;;;5086361;28;20028;-87
2021/01/22 04:06:58;;;;;;;3.67;3.30;;;;;;;;;;5084793;28;20024;-87
2021/01/22 04:09:24;;;;;;;4.90;2.88;;;;;;;;;;5084790;28;20047;-88
2021/01/22 04:11:50;;;;;;;2.70;2.50;;;;;;;;;;5104414;28;20032;-88
2021/01/22 04:14:16;;;;;;;2.80;2.60;;;;;;;;;;5102772;28;20077;-87
2021/01/22 04:16:50;;;;;;;2.65;2.45;;;;;;;;;;5102775;28;20042;-88
2021/01/22 04:19:17;;;;;;;2.85;2.58;;;;;;;;;;5085030;28;20043;-88
2021/01/22 04:21:43;;;;;;;2.95;2.75;;;;;;;;;;5102919;28;20024;-88
2021/01/22 04:24:09;;;;;;;2.47;2.28;;;;;;;;;;5084115;28;20347;-88
2021/01/22 04:26:35;;;;;;;5.03;3.15;;;;;;;;;;5084522;28;20423;-86
2021/01/22 04:29:02;;;;;;;3.15;2.85;;;;;;;;;;5085211;28;20303;-85
2021/01/22 04:31:28;;;;;;;3.35;2.88;;;;;;;;;;5102951;28;20034;-87
2021/01/22 04:33:54;;;;;;;3.78;3.45;;;;;;;;;;5083517;28;20101;-88
2021/01/22 04:36:20;;;;;;;6.55;3.47;;;;;;;;;;5122021;28;20069;-87
2021/01/22 04:38:46;;;;;;;5.18;4.13;;;;;;;;;;5104133;28;20035;-86
2021/01/22 04:41:13;;;;;;;6.13;4.18;;;;;;;;;;5105801;28;20083;-87
2021/01/22 04:43:44;;;;;;;9.27;5.18;;;;;;;;;;5104007;28;20028;-88
2021/01/22 04:46:10;;;;;;;5.65;4.43;;;;;;;;;;5105902;28;20394;-89
2021/01/22 04:48:37;;;;;;;4.78;4.05;;;;;;;;;;5104980;28;20046;-87
2021/01/22 04:51:05;;;;;;;8.70;4.90;;;;;;;;;;5103766;28;20029;-87
2021/01/22 04:53:32;;;;;;;6.25;4.95;;;;;;;;;;5104284;28;20405;-88
2021/01/22 04:55:58;;;;;;;6.47;5.55;;;;;;;;;;5111405;28;20085;-88
2021/01/22 04:58:26;;;;;;;8.05;5.53;;;;;;;;;;5018674;28;20033;-86
2021/01/22 05:00:52;;;;;;;8.18;4.78;;;;;;;;;;5088894;28;20072;-88
2021/01/22 05:03:23;;;;;;;7.70;5.32;;;;;;;;;;5017699;28;20026;-88
2021/01/22 05:05:50;;;;;;;6.88;4.78;;;;;;;;;;5080107;28;20140;-87
2021/01/22 05:08:17;;;;;;;6.28;5.13;;;;;;;;;;5070425;28;20046;-89
2021/01/22 05:10:43;;;;;;;7.13;5.00;;;;;;;;;;5069580;28;20038;-87
2021/01/22 05:13:09;;;;;;;6.32;4.80;;;;;;;;;;5064931;28;20028;-88
2021/01/22 05:15:36;;;;;;;5.47;4.97;;;;;;;;;;5103100;28;20032;-87
2021/01/22 05:18:02;;;;;;;5.70;4.05;;;;;;;;;;5105842;28;20024;-87
2021/01/22 05:20:29;;;;;;;7.18;4.80;;;;;;;;;;5090832;28;20072;-87
2021/01/22 05:22:55;;;;;;;4.72;4.28;;;;;;;;;;5096005;28;20038;-87
2021/01/22 05:25:22;;;;;;;4.85;4.35;;;;;;;;;;5086655;28;20045;-86
2021/01/22 05:27:49;;;;;;;6.93;5.13;;;;;;;;;;5084550;28;20063;-87
2021/01/22 05:30:15;;;;;;;6.15;5.05;;;;;;;;;;5092078;28;20117;-87
2021/01/22 05:32:41;;;;;;;6.90;5.45;;;;;;;;;;5084688;28;20024;-86
2021/01/22 05:35:08;;;;;;;7.40;5.65;;;;;;;;;;5107966;28;20019;-86
2021/01/22 05:37:49;;;;;;;6.28;4.82;;;;;;;;;;5114043;28;20035;-83
2021/01/22 05:40:15;;;;;;;6.03;4.15;;;;;;;;;;5085993;28;20135;-85
2021/01/22 05:42:57;;;;;;;8.55;6.18;;;;;;;;;;5086119;28;20032;-86
2021/01/22 05:45:37;;;;;;;6.25;5.22;;;;;;;;;;5087294;28;20067;-86
2021/01/22 05:48:04;;;;;;;6.25;5.65;;;;;;;;;;5093656;28;20068;-85
2021/01/22 05:50:47;;;;;;;7.75;6.78;;;;;;;;;;5107002;28;20031;-86
2021/01/22 05:53:15;;;;;;;7.07;5.95;;;;;;;;;;5108780;28;20035;-86
2021/01/22 05:55:41;;;;;;;7.47;6.07;;;;;;;;;;5087359;28;20039;-87
2021/01/22 05:58:07;;;;;;;6.07;5.45;;;;;;;;;;5086193;28;20032;-87
2021/01/22 06:00:33;;;;;;;9.15;6.35;;;;;;;;;;5092139;28;20087;-86
2021/01/22 06:03:00;;;;;;;7.60;6.72;;;;;;;;;;5088185;28;20043;-86
2021/01/22 06:05:26;;;;;;;6.07;5.43;;;;;;;;;;5085110;28;20032;-86
2021/01/22 06:08:09;;;;;;;10.63;7.25;;;;;;;;;;5094649;28;20312;-86
2021/01/22 06:10:41;;;;;;;7.55;6.57;;;;;;;;;;5115527;28;20041;-85
2021/01/22 06:13:09;;;;;;;6.57;5.97;;;;;;;;;;5092869;28;20035;-87
2021/01/22 06:15:36;;;;;;;7.15;6.45;;;;;;;;;;5103066;28;20042;-86
2021/01/22 06:18:03;;;;;;;9.93;7.95;;;;;;;;;;5086629;28;20031;-84
2021/01/22 06:20:30;;;;;;;11.65;6.70;;;;;;;;;;5092511;28;20052;-85
2021/01/22 06:23:12;;;;;;;7.63;6.82;;;;;;;;;;5109061;28;20104;-86
2021/01/22 06:25:39;;;;;;;7.85;7.05;;;;;;;;;;5105880;28;20039;-85
2021/01/22 06:28:06;;;;;;;7.57;6.93;;;;;;;;;;5092997;28;20054;-85
2021/01/22 06:30:34;;;;;;;7.93;7.15;;;;;;;;;;5022117;28;20057;-86
2021/01/22 06:33:03;;;;;;;7.80;6.95;;;;;;;;;;5094501;28;20046;-85
2021/01/22 06:35:30;;;;;;;7.10;6.00;;;;;;;;;;5092206;28;20445;-85
2021/01/22 06:37:57;;;;;;;10.15;7.00;;;;;;;;;;5090672;28;20065;-86
2021/01/22 06:40:23;;;;;;;8.52;6.97;;;;;;;;;;5097576;28;20070;-86
2021/01/22 06:42:49;;;;;;;8.82;6.80;;;;;;;;;;5109136;28;20028;-85
2021/01/22 06:45:18;;;;;;;8.27;6.43;;;;;;;;;;5089970;28;20028;-86
2021/01/22 06:47:56;;;;;;;8.03;7.27;;;;;;;;;;5098018;28;20031;-85
2021/01/22 06:50:23;;;;;;;8.97;6.87;;;;;;;;;;5112689;28;20036;-85
2021/01/22 06:53:09;;;;;;;8.10;6.03;;;;;;;;;;5093964;28;20265;-86
2021/01/22 06:55:55;;;;;;;7.70;6.97;;;;;;;;;;5108769;28;20016;-86
2021/01/22 06:58:25;;;;;;;8.38;6.03;;;;;;;;;;5092661;28;20027;-87
2021/01/22 07:00:55;;;;;;;6.55;5.90;;;;;;;;;;5096258;28;20027;-87
2021/01/22 07:03:36;;;;;;;7.22;6.25;;;;;;;;;;5097766;28;20032;-86
2021/01/22 07:06:03;;;;;;;11.43;6.65;;;;;;;;;;5088744;28;20036;-86
2021/01/22 07:08:48;;;;;;;7.70;5.88;;;;;;;;;;5079342;28;20035;-87
2021/01/22 07:11:14;;;;;;;7.35;6.30;;;;;;;;;;5076712;28;20039;-88
2021/01/22 07:13:42;;;;;;;7.35;6.10;;;;;;;;;;5077314;28;20036;-87
2021/01/22 07:16:10;;;;;;;9.32;6.45;;;;;;;;;;5089927;28;20040;-85
2021/01/22 07:18:49;;;;;;;9.15;5.97;;;;;;;;;;5065882;28;21060;-86
2021/01/22 07:21:19;;;;;;;6.53;5.80;;;;;;;;;;5069071;28;20025;-88
2021/01/22 07:23:46;;;;;;;6.88;6.10;;;;;;;;;;5070046;28;20037;-88
2021/01/22 07:26:12;;;;;;;9.73;6.10;;;;;;;;;;5078959;28;20028;-87
2021/01/22 07:28:49;;;;;;;6.15;5.55;;;;;;;;;;5082206;28;20050;-86
2021/01/22 07:31:33;;;;;;;7.18;6.47;;;;;;;;;;5102273;28;20020;-85
2021/01/22 07:34:00;;;;;;;6.40;5.75;;;;;;;;;;5092755;28;20030;-87
2021/01/22 07:36:26;;;;;;;7.20;6.25;;;;;;;;;;5073482;28;20431;-85
2021/01/22 07:38:53;;;;;;;8.95;6.03;;;;;;;;;;5067304;28;20026;-87
2021/01/22 07:41:25;;;;;;;12.95;6.95;;;;;;;;;;5060315;28;20031;-86
2021/01/22 07:44:01;;;;;;;8.13;5.88;;;;;;;;;;5092421;28;20032;-88
2021/01/22 07:46:28;;;;;;;8.93;6.22;;;;;;;;;;5093405;28;20036;-87
2021/01/22 07:49:09;;;;;;;6.05;5.45;;;;;;;;;;5032883;28;20031;-86
2021/01/22 07:51:42;;;;;;;10.85;7.15;;;;;;;;;;5052187;28;20043;-87
2021/01/22 07:54:09;;;;;;;10.50;7.03;;;;;;;;;;5060751;28;20114;-85
2021/01/22 07:56:44;;;;;;;8.25;6.30;;;;;;;;;;5079714;28;20439;-87
2021/01/22 07:59:12;;;;;;;7.10;6.25;;;;;;;;;;5099292;28;20023;-85
2021/01/22 08:01:39;;;;;;;7.97;5.95;;;;;;;;;;5088306;28;20138;-86
2021/01/22 08:04:06;;;;;;;10.82;6.38;;;;;;;;;;5088400;28;20032;-87
2021/01/22 08:06:44;;;;;;;7.72;5.95;;;;;;;;;;5051472;28;20029;-85
2021/01/22 08:09:38;;;;;;;9.38;6.03;;;;;;;;;;5062423;28;20120;-86
2021/01/22 08:12:08;;;;;;;8.65;6.22;;;;;;;;;;5106404;28;20347;-87
2021/01/22 08:14:35;;;;;;;8.27;5.88;;;;;;;;;;5088632;28;20355;-87
2021/01/22 08:17:03;;;;;;;8.98;6.05;;;;;;;;;;5097044;28;20020;-88
2021/01/22 08:19:29;;;;;;;6.70;5.32;;;;;;;;;;5105537;28;20229;-85
2021/01/22 08:21:57;;;;;;;8.25;6.70;;;;;;;;;;5091866;28;20031;-86
2021/01/22 08:24:24;;;;;;;10.68;6.13;;;;;;;;;;5079480;28;20024;-87
2021/01/22 08:27:01;;;;;;;9.68;5.70;;;;;;;;;;5086846;28;20265;-87
2021/01/22 08:29:28;;;;;;;9.75;6.93;;;;;;;;;;5081231;28;20123;-87
2021/01/22 08:31:55;;;;;;;8.80;6.43;;;;;;;;;;5088989;28;20020;-87
2021/01/22 08:34:22;;;;;;;7.03;6.13;;;;;;;;;;5084594;28;20035;-87
2021/01/22 08:36:50;;;;;;;5.43;4.90;;;;;;;;;;5083720;28;20020;-87
2021/01/22 08:39:20;;;;;;;7.35;5.88;;;;;;;;;;5086209;28;20020;-85
2021/01/22 08:41:46;;;;;;;8.20;5.90;;;;;;;;;;5068897;28;20108;-88
2021/01/22 08:44:15;;;;;;;7.47;6.50;;;;;;;;;;5063268;28;20024;-87
2021/01/22 08:46:53;;;;;;;7.72;5.75;;;;;;;;;;5100589;28;20054;-87
2021/01/22 08:49:19;;;;;;;8.70;5.85;;;;;;;;;;5099362;28;20089;-88
2021/01/22 08:51:46;;;;;;;9.00;6.22;;;;;;;;;;5101326;28;20020;-87
2021/01/22 08:54:12;;;;;;;11.68;6.53;;;;;;;;;;5084903;28;20034;-86
2021/01/22 08:56:39;;;;;;;9.25;6.90;;;;;;;;;;5090418;28;20333;-86
2021/01/22 08:59:07;;;;;;;11.18;6.45;;;;;;;;;;5091257;28;20039;-86
2021/01/22 09:01:49;;;;;;;6.72;5.93;;;;;;;;;;5089078;28;20051;-87
2021/01/22 09:04:23;;;;;;;11.27;6.97;;;;;;;;;;5089679;28;20024;-87
2021/01/22 09:06:50;;;;;;;10.20;6.70;;;;;;;;;;5089530;28;20027;-87
2021/01/22 09:09:16;;;;;;;10.52;6.03;;;;;;;;;;5062498;28;20038;-87
2021/01/22 09:11:46;;;;;;;12.30;7.05;;;;;;;;;;5058770;28;20027;-87
2021/01/22 09:14:12;;;;;;;9.65;6.78;;;;;;;;;;5090077;28;20024;-86
2021/01/22 09:16:48;;;;;;;9.93;5.90;;;;;;;;;;5087144;28;20028;-86
2021/01/22 09:19:14;;;;;;;11.45;6.35;;;;;;;;;;5101761;28;20032;-86
2021/01/22 09:21:57;;;;;;;11.27;7.15;;;;;;;;;;5088048;28;20054;-86
2021/01/22 09:24:23;;;;;;;8.10;5.90;;;;;;;;;;5087372;28;20088;-88
2021/01/22 09:26:50;;;;;;;8.77;6.25;;;;;;;;;;5085776;28;20138;-85
2021/01/22 09:29:16;;;;;;;8.90;5.50;;;;;;;;;;5075540;28;20432;-88
2021/01/22 09:31:42;;;;;;;9.63;5.50;;;;;;;;;;5077671;28;20093;-88
2021/01/22 09:34:09;;;;;;;10.63;6.38;;;;;;;;;;5087260;28;20032;-88
2021/01/22 09:36:35;;;;;;;7.25;5.65;;;;;;;;;;5083631;28;20024;-87
2021/01/22 09:39:01;;;;;;;12.23;5.60;;;;;;;;;;5077996;28;20032;-89
2021/01/22 09:41:27;;;;;;;9.07;5.65;;;;;;;;;;5098495;28;20334;-86
2021/01/22 09:43:56;;;;;;;9.32;5.45;;;;;;;;;;5095166;28;20054;-86
2021/01/22 09:46:22;;;;;;;12.48;5.65;;;;;;;;;;5102703;28;20032;-85
2021/01/22 09:48:48;;;;;;;10.60;5.63;;;;;;;;;;5103313;28;20043;-86
2021/01/22 09:51:14;;;;;;;7.43;5.45;;;;;;;;;;5065496;28;20042;-86
2021/01/22 09:53:40;;;;;;;6.60;4.93;;;;;;;;;;5084637;28;20023;-86
2021/01/22 09:56:07;;;;;;;7.22;5.20;;;;;;;;;;5085945;28;20031;-87
2021/01/22 09:58:33;;;;;;;9.85;6.05;;;;;;;;;;5083383;28;20090;-86
2021/01/22 10:00:59;;;;;;;8.75;5.30;;;;;;;;;;5091299;28;20028;-85
2021/01/22 10:03:25;;;;;;;8.57;5.38;;;;;;;;;;5110533;28;20078;-86
2021/01/22 10:05:51;;;;;;;7.03;4.97;;;;;;;;;;5087442;28;20427;-86
2021/01/22 10:08:20;;;;;;;8.05;5.30;;;;;;;;;;5085682;28;20028;-86
2021/01/22 10:10:46;;;;;;;8.05;5.53;;;;;;;;;;5089886;28;20031;-87
2021/01/22 10:13:13;;;;;;;9.10;5.22;;;;;;;;;;5086229;28;20028;-86
2021/01/22 10:15:39;;;;;;;10.85;6.43;;;;;;;;;;5087722;28;20036;-85
2021/01/22 10:18:05;;;;;;;8.57;5.32;;;;;;;;;;5098441;28;20378;-87
2021/01/22 10:20:31;;;;;;;7.40;4.97;;;;;;;;;;5105045;28;20016;-86
2021/01/22 10:22:57;;;;;;;13.43;6.50;;;;;;;;;;5088735;28;20032;-86
2021/01/22 10:25:23;;;;;;;7.68;5.63;;;;;;;;;;5084641;28;20078;-87
2021/01/22 10:27:49;;;;;;;11.70;5.55;;;;;;;;;;5069131;28;20036;-85
2021/01/22 10:30:16;;;;;;;12.02;5.53;;;;;;;;;;5089814;28;20324;-87
2021/01/22 10:32:42;;;;;;;10.88;5.72;;;;;;;;;;5092841;28;20060;-87
2021/01/22 10:35:09;;;;;;;8.70;5.25;;;;;;;;;;5089560;28;20024;-87
2021/01/22 10:37:35;;;;;;;11.40;4.78;;;;;;;;;;5019499;28;20101;-87
2021/01/22 10:40:01;;;;;;;9.82;5.70;;;;;;;;;;5054796;28;20034;-87
2021/01/22 10:42:27;;;;;;;6.57;4.35;;;;;;;;;;5040619;28;20038;-85
2021/01/22 10:44:53;;;;;;;6.47;5.07;;;;;;;;;;5090314;28;20031;-86
2021/01/22 10:47:20;;;;;;;8.23;4.20;;;;;;;;;;5067612;28;20250;-87
2021/01/22 10:49:46;;;;;;;10.15;5.28;;;;;;;;;;5107167;28;20020;-86
2021/01/22 10:52:12;;;;;;;8.40;4.60;;;;;;;;;;5091617;28;20024;-87
2021/01/22 10:54:39;;;;;;;10.20;4.63;;;;;;;;;;5078999;28;20080;-87
2021/01/22 10:57:05;;;;;;;15.18;4.95;;;;;;;;;;5070125;28;20042;-86
2021/01/22 10:59:31;;;;;;;8.07;4.47;;;;;;;;;;5095859;28;20116;-85
2021/01/22 11:01:57;;;;;;;13.15;5.45;;;;;;;;;;5060640;28;20026;-85
2021/01/22 11:04:23;;;;;;;13.57;5.32;;;;;;;;;;5078091;28;20044;-86
2021/01/22 11:06:50;;;;;;;14.60;5.10;;;;;;;;;;5088084;28;20028;-86
2021/01/22 11:09:16;;;;;;;15.02;5.75;;;;;;;;;;5103623;28;20404;-87
2021/01/22 11:11:42;;;;;;;8.57;4.38;;;;;;;;;;5083156;28;20044;-86
2021/01/22 11:14:09;;;;;;;10.32;5.35;;;;;;;;;;5079819;28;20030;-86
2021/01/22 11:16:35;;;;;;;10.85;6.00;;;;;;;;;;5127729;27;20038;-86
2021/01/22 11:19:06;;;;;;;11.18;4.88;;;;;;;;;;5107904;28;20118;-86
2021/01/22 11:21:34;;;;;;;14.20;5.43;;;;;;;;;;5106584;28;20027;-86
2021/01/22 11:24:00;;;;;;;11.13;4.78;;;;;;;;;;5102445;28;20020;-85
2021/01/22 11:26:30;;;;;;;8.45;4.70;;;;;;;;;;5099780;28;20066;-86
2021/01/22 11:28:56;;;;;;;6.80;4.78;;;;;;;;;;5119034;28;20043;-86
2021/01/22 11:31:22;;;;;;;11.65;5.20;;;;;;;;;;5100835;28;20031;-86
2021/01/22 11:33:48;;;;;;;7.75;4.90;;;;;;;;;;5084779;28;20497;-85
2021/01/22 11:36:17;;;;;;;9.23;5.00;;;;;;;;;;5091256;28;20023;-86
2021/01/22 11:38:43;;;;;;;9.20;5.05;;;;;;;;;;5085986;28;20032;-88
2021/01/22 11:41:09;;;;;;;8.18;5.18;;;;;;;;;;5104512;28;20036;-86
2021/01/22 11:43:36;;;;;;;9.02;4.70;;;;;;;;;;5102687;28;20457;-87
2021/01/22 11:46:02;;;;;;;6.45;4.90;;;;;;;;;;5081860;28;20024;-86
2021/01/22 11:48:28;;;;;;;9.38;4.97;;;;;;;;;;5078421;28;20072;-87
2021/01/22 11:50:54;;;;;;;15.98;5.15;;;;;;;;;;5084209;28;21209;-87
2021/01/22 11:53:20;;;;;;;7.70;4.63;;;;;;;;;;5092019;28;20358;-86
2021/01/22 11:55:47;;;;;;;7.68;4.03;;;;;;;;;;5087216;28;20030;-85
2021/01/22 11:58:13;;;;;;;9.63;4.68;;;;;;;;;;5084148;28;20085;-85
2021/01/22 12:00:39;;;;;;;9.98;4.65;;;;;;;;;;5050258;28;20026;-88
2021/01/22 12:03:05;;;;;;;7.60;4.60;;;;;;;;;;5080747;28;20061;-86
2021/01/22 12:05:32;;;;;;;12.15;5.75;;;;;;;;;;5081822;28;20028;-86
2021/01/22 12:07:58;;;;;;;8.05;4.40;;;;;;;;;;5072955;28;20037;-87
2021/01/22 12:10:25;;;;;;;8.95;4.53;;;;;;;;;;5094626;28;20032;-86
2021/01/22 12:12:52;;;;;;;7.72;4.22;;;;;;;;;;5076348;28;20025;-87
2021/01/22 12:15:18;;;;;;;9.85;4.28;;;;;;;;;;5023429;28;20039;-86
2021/01/22 12:17:44;;;;;;;9.70;3.92;;;;;;;;;;5089929;28;20037;-87
2021/01/22 12:20:15;;;;;;;7.10;4.07;;;;;;;;;;5067547;28;20156;-89
2021/01/22 12:22:41;;;;;;;7.28;3.97;;;;;;;;;;5058858;28;20034;-87
2021/01/22 12:25:08;;;;;;;8.38;4.43;;;;;;;;;;5043512;28;20075;-86
2021/01/22 12:27:34;;;;;;;7.22;4.00;;;;;;;;;;5046939;28;20125;-86
2021/01/22 12:30:00;;;;;;;8.32;3.53;;;;;;;;;;5054565;28;20077;-86
2021/01/22 12:32:26;;;;;;;7.05;3.67;;;;;;;;;;5043774;28;20083;-86
2021/01/22 12:34:53;;;;;;;6.72;3.67;;;;;;;;;;5071334;28;20035;-87
2021/01/22 12:37:19;;;;;;;9.43;3.80;;;;;;;;;;5040086;28;20121;-86
2021/01/22 12:39:45;;;;;;;5.70;3.53;;;;;;;;;;5087117;28;20418;-87
2021/01/22 12:42:17;;;;;;;10.45;3.35;;;;;;;;;;5078316;28;20028;-86
2021/01/22 12:44:43;;;;;;;12.10;3.50;;;;;;;;;;5076683;28;20040;-86
2021/01/22 12:47:10;;;;;;;6.38;3.60;;;;;;;;;;5092474;28;20028;-85
2021/01/22 12:49:37;;;;;;;7.82;2.67;;;;;;;;;;5089208;28;20046;-87
2021/01/22 12:52:04;;;;;;;5.35;2.80;;;;;;;;;;5083316;28;20086;-87
2021/01/22 12:54:31;;;;;;;7.57;3.00;;;;;;;;;;5079520;28;20031;-86
2021/01/22 12:56:58;;;;;;;5.55;2.95;;;;;;;;;;5084524;28;20046;-85
2021/01/22 12:59:24;;;;;;;7.10;2.92;;;;;;;;;;5078442;28;20047;-86
2021/01/22 13:01:51;;;;;;;8.27;3.30;;;;;;;;;;5091276;28;20060;-84
2021/01/22 13:04:17;;;;;;;5.90;2.92;;;;;;;;;;5087488;28;20028;-86
2021/01/22 13:06:43;;;;;;;8.65;2.60;;;;;;;;;;5088967;28;20476;-87
2021/01/22 13:09:09;;;;;;;6.28;3.17;;;;;;;;;;5067972;28;20028;-86
2021/01/22 13:11:35;;;;;;;6.97;2.72;;;;;;;;;;5076057;28;20047;-87
2021/01/22 13:14:01;;;;;;;9.00;2.80;;;;;;;;;;5064890;28;20034;-87
2021/01/22 13:16:28;;;;;;;7.43;2.80;;;;;;;;;;5042757;28;20146;-87
2021/01/22 13:18:54;;;;;;;6.07;3.13;;;;;;;;;;5086512;28;20019;-87
2021/01/22 13:21:20;;;;;;;5.85;2.40;;;;;;;;;;5085902;28;20024;-87
2021/01/22 13:23:46;;;;;;;6.82;2.70;;;;;;;;;;5087233;28;20130;-84
2021/01/22 13:26:14;;;;;;;9.20;2.83;;;;;;;;;;5096783;28;20026;-86
2021/01/22 13:28:40;;;;;;;9.18;2.63;;;;;;;;;;5088212;28;20327;-87
2021/01/22 13:31:09;;;;;;;7.40;2.53;;;;;;;;;;5103891;28;20024;-87
2021/01/22 13:33:35;;;;;;;5.25;3.00;;;;;;;;;;5094305;28;20024;-86
2021/01/22 13:36:05;;;;;;;4.78;2.63;;;;;;;;;;5088418;28;20024;-87
2021/01/22 13:38:31;;;;;;;4.28;2.15;;;;;;;;;;5103829;28;20130;-88
2021/01/22 13:40:59;;;;;;;5.22;2.58;;;;;;;;;;5085005;28;20034;-86
2021/01/22 13:43:25;;;;;;;5.72;2.10;;;;;;;;;;5093826;28;20024;-86
2021/01/22 13:45:51;;;;;;;7.72;2.80;;;;;;;;;;5096882;28;20028;-87
2021/01/22 13:48:17;;;;;;;8.10;2.40;;;;;;;;;;5095303;28;20051;-89
2021/01/22 13:50:46;;;;;;;7.47;2.63;;;;;;;;;;5097976;28;20095;-87
2021/01/22 13:53:15;;;;;;;6.45;3.03;;;;;;;;;;5096217;28;20119;-85
2021/01/22 13:55:58;;;;;;;10.82;2.75;;;;;;;;;;5089340;28;20031;-89
2021/01/22 13:58:24;;;;;;;6.65;2.58;;;;;;;;;;5094227;28;20032;-84
2021/01/22 14:01:10;;;;;;;7.00;2.30;;;;;;;;;;5088420;28;20032;-91
2021/01/22 14:03:36;;;;;;;6.13;2.22;;;;;;;;;;5088769;28;20121;-91
2021/01/22 14:06:02;;;;;;;3.47;2.13;;;;;;;;;;5090779;28;20035;-83
2021/01/22 14:08:28;;;;;;;6.25;1.90;;;;;;;;;;5076765;28;20032;-85
2021/01/22 14:10:54;;;;;;;6.57;2.42;;;;;;;;;;5078087;28;20028;-84
2021/01/22 14:13:20;;;;;;;6.38;2.30;;;;;;;;;;5108181;28;20035;-85
2021/01/22 14:15:47;;;;;;;8.00;2.30;;;;;;;;;;5099621;28;20031;-86
2021/01/22 14:18:13;;;;;;;7.97;2.45;;;;;;;;;;5107090;28;20031;-84
2021/01/22 14:20:39;;;;;;;7.72;2.45;;;;;;;;;;5085846;28;20049;-87
2021/01/22 14:23:08;;;;;;;3.65;1.90;;;;;;;;;;5080811;28;20040;-87
2021/01/22 14:25:34;;;;;;;7.35;1.98;;;;;;;;;;5065605;28;20031;-83
2021/01/22 14:28:00;;;;;;;5.25;1.70;;;;;;;;;;5079423;28;20197;-83
2021/01/22 14:30:27;;;;;;;6.22;2.40;;;;;;;;;;5081254;28;20032;-87
2021/01/22 14:32:53;;;;;;;5.63;2.10;;;;;;;;;;5079446;28;20028;-88
2021/01/22 14:35:19;;;;;;;5.38;1.98;;;;;;;;;;5095923;28;20031;-84
2021/01/22 14:37:45;;;;;;;3.22;1.90;;;;;;;;;;5078214;28;20027;-85
2021/01/22 14:40:13;;;;;;;5.13;1.58;;;;;;;;;;5100845;28;20025;-84
2021/01/22 14:42:39;;;;;;;8.45;2.05;;;;;;;;;;5078990;28;20024;-84
2021/01/22 14:45:06;;;;;;;11.38;2.67;;;;;;;;;;5097330;28;20110;-84
2021/01/22 14:47:34;;;;;;;6.72;2.20;;;;;;;;;;5079612;28;20028;-84